Time;durP1;ratioP1;P1;durP2;ratioP2;P2;SDS_P1;SDS_P2;PMS_P1;PMS_P2;Temp;Humidity;BMP_temperature;BMP_pressure;BME280_temperature;BME280_humidity;BME280_pressure;Samples;Min_cycle;Max_cycle;Signal;HPM_P1;HPM_P2
2023/10/13 00:01:48;;;;;;;7.80;3.97;;;13.50;99.90;;;;;;5033719;28;20406;-71
2023/10/13 00:04:14;;;;;;;6.53;4.83;;;13.50;99.90;;;;;;5033404;28;20508;-71
2023/10/13 00:06:42;;;;;;;5.80;3.70;;;13.50;99.90;;;;;;5033399;28;20426;-72
2023/10/13 00:09:14;;;;;;;11.80;4.90;;;13.50;99.90;;;;;;5033343;28;20172;-74
2023/10/13 00:11:44;;;;;;;4.50;3.93;;;13.50;99.90;;;;;;5015392;28;20433;-72
2023/10/13 00:14:11;;;;;;;5.90;4.20;;;13.60;99.90;;;;;;5033337;28;20954;-72
2023/10/13 00:16:39;;;;;;;5.87;4.20;;;13.50;99.90;;;;;;5033619;28;20469;-71
2023/10/13 00:19:05;;;;;;;6.20;4.87;;;13.40;99.90;;;;;;5033328;28;20828;-72
2023/10/13 00:21:31;;;;;;;8.13;6.10;;;13.40;99.90;;;;;;5034217;28;20918;-72
2023/10/13 00:23:59;;;;;;;8.70;5.27;;;13.50;99.90;;;;;;5033486;28;20457;-72
2023/10/13 00:26:30;;;;;;;11.37;5.40;;;13.50;99.90;;;;;;5033449;28;20267;-72
2023/10/13 00:29:16;;;;;;;6.10;4.33;;;13.50;99.90;;;;;;5033222;28;20501;-72
2023/10/13 00:31:42;;;;;;;6.10;5.07;;;13.50;99.90;;;;;;5032924;28;20522;-71
2023/10/13 00:34:18;;;;;;;7.40;4.10;;;13.50;99.90;;;;;;5032977;28;20442;-72
2023/10/13 00:37:28;;;;;;;6.40;4.03;;;13.40;99.90;;;;;;5033183;28;20407;-71
2023/10/13 00:39:36;;;;;;;7.30;4.87;;;13.40;99.90;;;;;;5024411;28;20462;-72
2023/10/13 00:42:09;;;;;;;6.87;4.97;;;13.40;99.90;;;;;;5032819;28;20414;-71
2023/10/13 00:44:41;;;;;;;5.80;5.30;;;13.40;99.90;;;;;;5032891;28;20434;-74
2023/10/13 00:47:16;;;;;;;7.77;5.33;;;13.40;99.90;;;;;;5032912;28;20492;-72
2023/10/13 00:49:46;;;;;;;12.60;5.73;;;13.40;99.90;;;;;;5015047;28;20425;-72
2023/10/13 00:52:15;;;;;;;8.37;4.50;;;13.40;99.90;;;;;;5041013;28;20416;-72
2023/10/13 00:54:45;;;;;;;5.23;4.10;;;13.40;99.90;;;;;;5048573;28;20474;-72
2023/10/13 00:57:26;;;;;;;7.00;3.90;;;13.40;99.90;;;;;;5049371;28;20422;-73
2023/10/13 00:59:56;;;;;;;7.00;4.23;;;13.40;99.90;;;;;;5052536;28;20483;-73
2023/10/13 01:02:40;;;;;;;7.00;3.70;;;13.40;99.90;;;;;;5033305;28;20414;-73
2023/10/13 01:05:09;;;;;;;5.80;4.10;;;13.40;99.90;;;;;;5021045;28;20459;-72
2023/10/13 01:07:37;;;;;;;7.33;3.83;;;13.40;99.90;;;;;;5012635;28;20926;-72
2023/10/13 01:10:13;;;;;;;6.97;4.60;;;13.40;99.90;;;;;;5012837;28;20916;-72
2023/10/13 01:12:38;;;;;;;6.60;4.27;;;13.40;99.90;;;;;;5012493;28;20564;-72
2023/10/13 01:15:07;;;;;;;5.27;3.80;;;13.40;99.90;;;;;;5012545;28;20538;-72
2023/10/13 01:17:33;;;;;;;3.93;3.53;;;13.30;99.90;;;;;;5012481;28;20292;-71
2023/10/13 01:19:59;;;;;;;8.30;4.50;;;13.40;99.90;;;;;;5012338;28;20516;-71
2023/10/13 01:22:28;;;;;;;7.30;4.00;;;13.40;99.90;;;;;;5012442;28;21020;-72
2023/10/13 01:25:04;;;;;;;5.60;3.60;;;13.40;99.90;;;;;;5012106;28;20214;-72
2023/10/13 01:27:30;;;;;;;7.07;4.40;;;13.40;99.90;;;;;;5012649;28;20505;-72
2023/10/13 01:30:05;;;;;;;5.00;3.67;;;13.30;99.90;;;;;;5012410;28;20474;-72
2023/10/13 01:32:30;;;;;;;4.17;3.10;;;13.40;99.90;;;;;;5012315;28;20184;-72
2023/10/13 01:34:57;;;;;;;5.00;3.43;;;13.40;99.90;;;;;;5012127;28;20566;-72
2023/10/13 01:37:23;;;;;;;7.00;4.27;;;13.40;99.90;;;;;;5012065;28;20195;-72
2023/10/13 01:39:50;;;;;;;9.30;4.47;;;13.40;99.90;;;;;;5011974;28;20471;-71
2023/10/13 01:42:21;;;;;;;5.57;3.93;;;13.40;99.90;;;;;;5012237;28;20179;-72
2023/10/13 01:44:48;;;;;;;4.97;4.23;;;13.40;99.90;;;;;;5011786;28;20519;-72
2023/10/13 01:47:16;;;;;;;8.97;5.20;;;13.40;99.90;;;;;;5012093;28;20506;-72
2023/10/13 01:49:42;;;;;;;5.87;4.93;;;13.40;99.90;;;;;;5011825;28;20897;-72
2023/10/13 01:52:11;;;;;;;9.43;5.47;;;13.40;99.90;;;;;;5012200;28;20436;-72
2023/10/13 01:54:41;;;;;;;5.23;3.70;;;13.40;99.90;;;;;;5012957;28;20443;-73
2023/10/13 01:57:07;;;;;;;9.20;5.23;;;13.40;99.90;;;;;;5013714;28;20515;-73
2023/10/13 01:59:33;;;;;;;11.23;4.70;;;13.40;99.90;;;;;;5016123;28;20530;-74
2023/10/13 02:02:00;;;;;;;7.63;5.27;;;13.40;99.90;;;;;;5007199;28;20407;-72
2023/10/13 02:04:28;;;;;;;6.40;4.80;;;13.30;99.90;;;;;;5011707;28;20937;-72
2023/10/13 02:06:55;;;;;;;5.70;4.67;;;13.40;99.90;;;;;;5012017;28;20489;-72
2023/10/13 02:09:27;;;;;;;6.80;4.77;;;13.40;99.90;;;;;;5011691;28;20779;-73
2023/10/13 02:11:54;;;;;;;12.23;4.60;;;13.40;99.90;;;;;;5011535;28;20427;-72
2023/10/13 02:14:22;;;;;;;5.33;3.97;;;13.40;99.90;;;;;;4993723;28;20755;-72
2023/10/13 02:16:51;;;;;;;5.23;4.73;;;13.40;99.90;;;;;;5011582;28;20730;-72
2023/10/13 02:19:19;;;;;;;7.53;5.10;;;13.40;99.90;;;;;;5011685;28;20458;-72
2023/10/13 02:21:45;;;;;;;7.97;5.50;;;13.40;99.90;;;;;;5011484;28;20415;-72
2023/10/13 02:24:17;;;;;;;8.40;5.77;;;13.40;99.90;;;;;;5011219;28;20589;-72
2023/10/13 02:26:44;;;;;;;10.47;6.83;;;13.40;99.90;;;;;;5011770;28;20573;-73
2023/10/13 02:29:13;;;;;;;7.83;4.40;;;13.30;99.90;;;;;;5012618;28;20871;-72
2023/10/13 02:31:42;;;;;;;12.67;5.47;;;13.30;99.90;;;;;;5011414;28;20419;-72
2023/10/13 02:34:08;;;;;;;11.10;5.93;;;13.30;99.90;;;;;;5011102;28;20924;-71
2023/10/13 02:36:49;;;;;;;8.77;5.30;;;13.40;99.90;;;;;;5011269;28;20501;-72
2023/10/13 02:39:16;;;;;;;7.70;6.00;;;13.40;99.90;;;;;;5011145;28;20469;-72
2023/10/13 02:41:48;;;;;;;14.03;6.03;;;13.40;99.90;;;;;;5011041;28;20422;-74
2023/10/13 02:44:26;;;;;;;7.80;5.80;;;13.40;99.90;;;;;;5010918;28;20467;-72
2023/10/13 02:46:55;;;;;;;7.90;5.90;;;13.40;99.90;;;;;;5011342;28;20415;-72
2023/10/13 02:49:21;;;;;;;9.87;7.10;;;13.40;99.90;;;;;;5011201;28;20427;-72
2023/10/13 02:51:47;;;;;;;8.87;6.30;;;13.40;99.90;;;;;;5011097;28;20427;-72
2023/10/13 02:54:18;;;;;;;10.37;6.40;;;13.40;99.90;;;;;;5010938;28;20446;-72
2023/10/13 02:57:17;;;;;;;9.53;6.63;;;13.40;99.90;;;;;;5010891;28;20242;-72
2023/10/13 03:00:11;;;;;;;9.93;7.20;;;13.40;99.90;;;;;;5007963;28;20804;-72
2023/10/13 03:02:29;;;;;;;12.73;6.83;;;13.50;99.90;;;;;;5010377;28;20419;-72
2023/10/13 03:04:59;;;;;;;9.93;8.00;;;13.50;99.90;;;;;;5010679;28;20993;-72
2023/10/13 03:07:28;;;;;;;8.43;6.53;;;13.50;99.90;;;;;;5011333;28;20514;-72
2023/10/13 03:09:57;;;;;;;12.70;8.20;;;13.50;99.90;;;;;;5011353;28;20797;-72
2023/10/13 03:12:42;;;;;;;14.20;7.60;;;13.50;99.90;;;;;;5014835;28;20845;-72
2023/10/13 03:15:17;;;;;;;9.87;7.37;;;13.50;99.90;;;;;;5014902;28;20801;-72
2023/10/13 03:17:44;;;;;;;10.73;7.10;;;13.50;99.90;;;;;;5014969;28;20420;-72
2023/10/13 03:20:16;;;;;;;12.33;8.13;;;13.50;99.90;;;;;;5014887;28;20890;-72
2023/10/13 03:22:44;;;;;;;13.40;8.63;;;13.50;99.90;;;;;;5014569;28;20419;-72
2023/10/13 03:25:17;;;;;;;13.47;10.20;;;13.60;99.90;;;;;;5014600;28;20438;-72
2023/10/13 03:30:21;;;;;;;11.47;8.20;;;13.60;99.90;;;;;;5014654;28;20411;-71
2023/10/13 03:32:54;;;;;;;11.77;8.57;;;13.60;99.90;;;;;;5014338;28;20419;-72
2023/10/13 03:35:31;;;;;;;10.87;8.60;;;13.60;99.90;;;;;;4996816;28;20902;-72
2023/10/13 03:37:57;;;;;;;12.20;8.03;;;13.60;99.90;;;;;;5014231;28;20422;-73
2023/10/13 03:43:06;;;;;;;12.80;9.40;;;13.60;99.90;;;;;;5014271;28;20261;-73
2023/10/13 03:45:39;;;;;;;12.40;7.90;;;13.60;99.90;;;;;;5014573;28;20758;-73
2023/10/13 03:51:10;;;;;;;12.13;9.27;;;13.70;99.90;;;;;;5014283;28;20449;-72
2023/10/13 03:53:53;;;;;;;13.30;9.77;;;13.70;99.90;;;;;;5014011;28;20446;-73
2023/10/13 03:56:26;;;;;;;13.03;9.17;;;13.70;99.90;;;;;;5014148;28;20411;-73
2023/10/13 03:58:53;;;;;;;16.30;10.33;;;13.70;99.90;;;;;;5013794;28;20477;-73
2023/10/13 04:01:31;;;;;;;13.50;10.40;;;13.70;99.90;;;;;;5014050;28;20533;-72
2023/10/13 04:04:03;;;;;;;18.00;11.33;;;13.70;99.90;;;;;;5014208;28;20925;-73
2023/10/13 04:06:51;;;;;;;12.93;9.63;;;13.70;99.90;;;;;;5014754;28;20928;-73
2023/10/13 04:15:14;;;;;;;13.30;10.00;;;13.80;99.90;;;;;;5013896;28;20439;-72
2023/10/13 04:17:44;;;;;;;13.30;10.37;;;13.80;99.90;;;;;;5013466;28;20419;-72
2023/10/13 04:36:14;;;;;;;21.13;12.43;;;13.90;99.90;;;;;;5013561;28;20426;-73
2023/10/13 04:38:57;;;;;;;16.30;12.20;;;13.90;99.90;;;;;;5013196;28;20417;-72
2023/10/13 04:44:04;;;;;;;18.07;12.93;;;13.90;99.90;;;;;;5013140;28;20419;-72
2023/10/13 04:46:54;;;;;;;15.80;12.60;;;13.90;99.90;;;;;;5013226;28;20420;-73
2023/10/13 04:49:35;;;;;;;15.90;12.20;;;14.00;99.90;;;;;;5013121;28;20419;-72
2023/10/13 04:57:23;;;;;;;16.00;12.60;;;14.00;99.90;;;;;;5013068;28;20474;-73
2023/10/13 05:51:43;;;;;;;15.27;13.63;;;14.40;99.90;;;;;;5052441;28;20413;-70
2023/10/13 06:29:55;;;;;;;14.57;10.50;;;15.30;99.90;;;;;;5088564;28;20988;-69
2023/10/13 06:32:25;;;;;;;12.33;10.57;;;15.30;99.90;;;;;;5088370;28;21098;-69
2023/10/13 06:35:04;;;;;;;17.73;11.87;;;15.30;99.90;;;;;;5088206;28;20460;-69
2023/10/13 06:37:30;;;;;;;11.80;10.20;;;15.30;99.90;;;;;;5088055;28;20437;-70
2023/10/13 06:42:55;;;;;;;12.07;10.77;;;15.30;99.90;;;;;;5087875;28;20542;-71
2023/10/13 06:45:21;;;;;;;14.53;9.47;;;15.30;99.90;;;;;;5087702;28;20511;-69
2023/10/13 06:47:52;;;;;;;11.63;10.37;;;15.40;99.90;;;;;;5087838;28;20410;-69
2023/10/13 06:50:24;;;;;;;12.37;9.37;;;15.40;99.90;;;;;;5086614;28;20682;-69
2023/10/13 06:52:54;;;;;;;11.00;9.40;;;15.90;99.90;;;;;;5090270;28;20423;-69
2023/10/13 06:55:35;;;;;;;11.23;9.17;;;15.80;99.90;;;;;;5103957;28;20499;-72
2023/10/13 06:58:06;;;;;;;10.70;9.27;;;16.00;99.90;;;;;;5085309;28;20433;-69
2023/10/13 07:00:37;;;;;;;15.40;8.10;;;16.40;99.90;;;;;;5097271;28;20532;-68
2023/10/13 07:03:06;;;;;;;11.73;8.73;;;16.50;99.90;;;;;;5091091;28;20498;-71
2023/10/13 07:05:37;;;;;;;10.50;7.63;;;16.70;99.90;;;;;;5096605;28;20440;-70
2023/10/13 07:08:05;;;;;;;8.77;7.63;;;17.00;99.90;;;;;;5087720;28;20408;-69
2023/10/13 07:10:31;;;;;;;8.63;7.43;;;17.40;99.90;;;;;;5073998;28;20416;-69
2023/10/13 07:13:00;;;;;;;9.70;7.63;;;17.30;99.90;;;;;;5087417;28;20412;-70
2023/10/13 07:15:29;;;;;;;8.40;7.50;;;17.20;99.90;;;;;;5076792;28;20828;-70
2023/10/13 07:17:59;;;;;;;7.97;6.10;;;17.10;99.90;;;;;;5089003;28;20426;-70
2023/10/13 07:20:33;;;;;;;8.63;6.57;;;17.30;99.90;;;;;;5083032;28;20417;-69
2023/10/13 07:23:06;;;;;;;9.57;7.10;;;17.10;99.90;;;;;;5079127;28;20410;-71
2023/10/13 07:25:33;;;;;;;10.27;6.77;;;17.20;99.90;;;;;;5083538;28;20486;-69
2023/10/13 07:28:08;;;;;;;8.77;7.07;;;17.20;99.90;;;;;;5078217;28;20467;-69
2023/10/13 07:30:41;;;;;;;9.77;6.20;;;16.90;99.90;;;;;;5084047;28;20922;-69
2023/10/13 07:33:06;;;;;;;8.60;6.50;;;17.10;99.90;;;;;;5089262;28;20425;-70
2023/10/13 07:35:35;;;;;;;12.60;7.50;;;16.90;99.90;;;;;;5077064;28;20558;-68
2023/10/13 07:38:01;;;;;;;8.30;6.90;;;17.00;99.90;;;;;;5087879;28;20249;-73
2023/10/13 07:43:08;;;;;;;11.20;6.60;;;17.00;99.90;;;;;;5080538;28;20989;-72
2023/10/13 07:45:36;;;;;;;8.17;7.30;;;17.00;99.90;;;;;;5072777;28;20469;-68
2023/10/13 07:48:18;;;;;;;10.63;6.90;;;16.90;99.90;;;;;;5087185;28;20427;-69
2023/10/13 07:50:45;;;;;;;11.53;6.70;;;17.00;99.90;;;;;;5085414;28;20454;-69
2023/10/13 07:53:22;;;;;;;8.17;6.67;;;17.00;99.90;;;;;;5077558;28;20422;-69
2023/10/13 07:55:54;;;;;;;8.07;7.27;;;17.00;99.90;;;;;;5072997;28;20470;-68
2023/10/13 07:58:26;;;;;;;8.30;5.77;;;17.10;99.90;;;;;;5082794;28;20452;-68
2023/10/13 08:08:39;;;;;;;8.60;6.17;;;17.20;99.90;;;;;;5082347;28;20430;-69
2023/10/13 08:11:34;;;;;;;13.60;7.80;;;17.10;99.90;;;;;;5087878;28;20429;-70
2023/10/13 08:14:11;;;;;;;7.07;6.10;;;17.10;99.90;;;;;;5074201;28;20400;-70
2023/10/13 08:19:45;;;;;;;6.60;5.67;;;17.20;99.90;;;;;;5049304;28;20957;-70
2023/10/13 08:27:34;;;;;;;7.27;5.93;;;17.50;99.90;;;;;;5088308;28;20412;-68
2023/10/13 08:32:58;;;;;;;6.80;6.03;;;17.60;99.90;;;;;;5079865;28;20407;-69
2023/10/13 08:35:35;;;;;;;8.50;6.00;;;17.70;99.90;;;;;;5075725;28;20456;-70
2023/10/13 08:38:04;;;;;;;8.60;6.00;;;17.80;99.90;;;;;;5086844;28;20409;-70
2023/10/13 08:40:43;;;;;;;8.10;5.60;;;17.70;99.90;;;;;;5082369;28;20405;-68
2023/10/13 08:43:12;;;;;;;6.73;5.70;;;17.70;99.90;;;;;;5077028;28;20460;-69
2023/10/13 08:48:13;;;;;;;6.00;5.10;;;17.70;99.90;;;;;;5078334;28;20412;-69
2023/10/13 08:50:47;;;;;;;10.67;6.20;;;17.70;99.90;;;;;;5081085;28;20784;-71
2023/10/13 08:53:33;;;;;;;6.90;6.20;;;17.70;99.90;;;;;;5088213;28;20470;-69
2023/10/13 08:56:14;;;;;;;6.90;5.47;;;17.80;99.90;;;;;;5074445;28;20463;-70
2023/10/13 09:06:47;;;;;;;8.17;5.93;;;17.70;99.90;;;;;;5059439;28;20458;-69
2023/10/13 09:09:35;;;;;;;8.40;5.63;;;17.80;99.90;;;;;;5069656;28;20417;-69
2023/10/13 09:12:11;;;;;;;8.40;6.03;;;17.80;99.90;;;;;;5068366;28;20410;-70
2023/10/13 09:14:42;;;;;;;5.30;4.80;;;17.90;99.90;;;;;;5082739;28;20445;-68
2023/10/13 09:19:56;;;;;;;6.40;5.80;;;17.90;99.90;;;;;;5072753;28;20481;-69
2023/10/13 09:22:26;;;;;;;10.47;5.50;;;17.90;99.90;;;;;;5090042;28;20406;-69
2023/10/13 09:24:58;;;;;;;5.70;5.07;;;17.90;99.90;;;;;;5077209;28;20441;-69
2023/10/13 09:27:26;;;;;;;8.23;5.77;;;18.00;99.90;;;;;;5088195;28;20447;-71
2023/10/13 09:32:50;;;;;;;12.13;6.40;;;17.90;99.90;;;;;;5080343;28;21013;-70
2023/10/13 09:35:22;;;;;;;11.43;8.90;;;17.90;99.90;;;;;;5069073;28;20478;-70
2023/10/13 09:37:50;;;;;;;7.50;5.27;;;17.90;99.90;;;;;;5069789;28;20404;-71
2023/10/13 09:40:34;;;;;;;7.60;5.33;;;17.90;99.90;;;;;;5076662;28;20966;-72
2023/10/13 09:43:07;;;;;;;6.30;5.70;;;17.90;99.90;;;;;;5082553;28;20421;-69
2023/10/13 09:45:40;;;;;;;8.03;6.03;;;17.90;99.90;;;;;;5074644;28;20464;-69
2023/10/13 09:48:16;;;;;;;5.83;5.20;;;17.90;99.90;;;;;;5084920;28;20777;-70
2023/10/13 09:50:45;;;;;;;5.33;4.83;;;17.80;99.90;;;;;;5083541;28;20425;-69
2023/10/13 09:53:13;;;;;;;7.30;5.30;;;17.80;99.90;;;;;;5088923;28;20405;-69
2023/10/13 09:55:46;;;;;;;6.10;5.50;;;17.80;99.90;;;;;;5073755;28;20458;-69
2023/10/13 09:58:13;;;;;;;8.37;6.50;;;17.70;99.90;;;;;;5084157;28;20507;-69
2023/10/13 10:00:58;;;;;;;6.83;5.97;;;17.70;99.90;;;;;;5082526;28;20788;-69
2023/10/13 10:03:39;;;;;;;9.10;7.03;;;17.80;99.90;;;;;;5075640;28;20884;-69
2023/10/13 10:06:06;;;;;;;7.47;5.70;;;17.70;99.90;;;;;;5083416;28;20531;-70
2023/10/13 10:08:34;;;;;;;7.37;6.23;;;17.70;99.90;;;;;;5081525;28;20419;-69
2023/10/13 10:11:15;;;;;;;7.67;6.03;;;17.70;99.90;;;;;;5088460;28;20415;-69
2023/10/13 10:14:00;;;;;;;7.10;6.40;;;17.80;99.90;;;;;;5073695;28;20414;-70
2023/10/13 10:17:07;;;;;;;7.80;7.00;;;17.70;99.90;;;;;;5081660;28;20456;-69
2023/10/13 10:19:35;;;;;;;9.30;6.10;;;17.80;99.90;;;;;;5067306;28;20420;-69
2023/10/13 10:22:16;;;;;;;7.30;6.50;;;17.90;99.90;;;;;;5085238;28;20401;-69
2023/10/13 10:24:42;;;;;;;8.50;5.80;;;17.80;99.90;;;;;;5073128;28;20445;-70
2023/10/13 10:27:08;;;;;;;6.97;6.27;;;17.90;99.90;;;;;;5076073;28;20413;-69
2023/10/13 10:29:34;;;;;;;6.63;5.60;;;17.90;99.90;;;;;;5088099;28;20482;-70
2023/10/13 10:32:00;;;;;;;6.23;5.40;;;17.90;99.90;;;;;;5085977;28;20398;-70
2023/10/13 10:34:32;;;;;;;8.67;5.83;;;17.90;99.90;;;;;;5070676;28;20264;-69
2023/10/13 10:36:58;;;;;;;6.10;4.80;;;17.90;99.90;;;;;;5078819;28;20194;-69
2023/10/13 10:39:45;;;;;;;6.00;4.90;;;17.90;99.90;;;;;;5073918;28;20447;-69
2023/10/13 10:42:29;;;;;;;6.20;5.60;;;17.90;99.90;;;;;;5091668;28;20499;-69
2023/10/13 10:45:05;;;;;;;7.17;5.40;;;17.90;99.90;;;;;;5079748;28;20435;-69
2023/10/13 10:47:31;;;;;;;10.00;5.17;;;17.80;99.90;;;;;;5067948;28;20423;-69
2023/10/13 10:50:07;;;;;;;8.57;6.83;;;17.80;99.90;;;;;;5079951;28;20418;-70
2023/10/13 10:52:37;;;;;;;8.10;6.10;;;17.80;99.90;;;;;;5082440;28;20416;-70
2023/10/13 10:55:13;;;;;;;8.37;6.23;;;17.70;99.90;;;;;;5088825;28;20458;-71
2023/10/13 10:57:43;;;;;;;7.90;7.00;;;17.70;99.90;;;;;;5092754;28;20411;-71
2023/10/13 11:00:41;;;;;;;6.20;5.57;;;17.70;99.90;;;;;;5083107;28;20886;-71
2023/10/13 11:03:07;;;;;;;6.77;5.93;;;17.70;99.90;;;;;;5075488;28;20458;-70
2023/10/13 11:05:44;;;;;;;8.80;6.33;;;17.80;99.90;;;;;;5077794;28;20487;-71
2023/10/13 11:08:27;;;;;;;10.27;7.50;;;17.80;99.90;;;;;;5075856;28;20469;-70
2023/10/13 11:10:52;;;;;;;6.70;5.97;;;17.80;99.90;;;;;;5076485;28;20979;-69
2023/10/13 11:13:24;;;;;;;9.37;6.57;;;17.90;99.90;;;;;;5076026;28;20412;-71
2023/10/13 11:15:50;;;;;;;8.10;5.90;;;18.00;99.90;;;;;;5078539;28;20189;-69
2023/10/13 11:18:20;;;;;;;8.17;6.23;;;18.00;99.90;;;;;;5092451;28;20437;-69
2023/10/13 11:20:49;;;;;;;7.30;6.50;;;18.00;99.90;;;;;;5077322;28;20854;-70
2023/10/13 11:23:15;;;;;;;11.13;6.63;;;18.10;99.90;;;;;;5088689;28;20408;-69
2023/10/13 11:25:44;;;;;;;7.87;6.90;;;18.10;99.90;;;;;;5075927;28;20797;-69
2023/10/13 11:28:17;;;;;;;7.07;6.37;;;18.20;99.90;;;;;;5075081;28;20176;-69
2023/10/13 11:30:56;;;;;;;7.47;6.47;;;18.20;99.90;;;;;;5085740;28;20771;-69
2023/10/13 11:33:26;;;;;;;11.53;6.47;;;18.20;99.90;;;;;;5077347;28;20503;-69
2023/10/13 11:38:29;;;;;;;7.43;5.97;;;18.20;99.90;;;;;;5041366;28;20434;-68
2023/10/13 11:48:36;;;;;;;7.83;5.70;;;18.30;99.90;;;;;;5033819;28;20471;-68
2023/10/13 11:51:07;;;;;;;9.80;6.37;;;18.30;99.90;;;;;;5033545;28;20173;-68
2023/10/13 11:53:36;;;;;;;7.10;6.27;;;18.40;99.90;;;;;;5032899;28;20780;-71
2023/10/13 11:56:14;;;;;;;8.83;5.63;;;18.50;99.90;;;;;;5024732;28;20459;-69
2023/10/13 11:58:42;;;;;;;6.40;5.37;;;18.50;99.90;;;;;;5019504;28;20850;-70
2023/10/13 12:11:45;;;;;;;7.97;5.57;;;18.70;99.90;;;;;;5032909;28;20735;-68
2023/10/13 12:14:57;;;;;;;10.80;5.20;;;18.80;99.90;;;;;;5033393;28;20412;-67
2023/10/13 12:17:10;;;;;;;6.57;5.00;;;18.90;99.90;;;;;;5024438;28;20965;-68
2023/10/13 12:19:38;;;;;;;7.73;5.53;;;18.90;99.90;;;;;;5033134;28;20430;-67
2023/10/13 12:22:07;;;;;;;9.30;6.27;;;18.90;99.90;;;;;;5031066;28;20422;-67
2023/10/13 12:27:02;;;;;;;9.70;5.40;;;19.00;99.90;;;;;;5023594;28;20448;-68
2023/10/13 12:29:28;;;;;;;7.47;5.50;;;19.10;99.90;;;;;;5024170;28;20563;-67
2023/10/13 12:32:12;;;;;;;7.17;4.80;;;19.20;99.90;;;;;;5032872;28;20422;-68
2023/10/13 12:51:40;;;;;;;5.10;4.60;;;19.60;99.90;;;;;;5032275;28;20428;-67
2023/10/13 12:54:13;;;;;;;5.47;4.93;;;19.60;99.90;;;;;;5023531;28;20416;-68
2023/10/13 12:56:41;;;;;;;6.17;4.10;;;19.70;99.90;;;;;;5032222;28;20467;-67
2023/10/13 12:59:09;;;;;;;7.23;5.20;;;19.70;99.90;;;;;;5031962;28;20405;-66
2023/10/13 13:01:34;;;;;;;6.90;4.97;;;19.80;99.90;;;;;;5032092;28;20416;-67
2023/10/13 13:04:03;;;;;;;7.97;5.57;;;19.80;99.90;;;;;;5017131;28;20894;-67
2023/10/13 13:06:30;;;;;;;7.33;5.60;;;19.80;99.90;;;;;;5030668;28;20278;-67
2023/10/13 13:08:57;;;;;;;5.93;5.20;;;19.90;99.90;;;;;;5032020;28;20407;-67
2023/10/13 13:11:24;;;;;;;5.50;4.90;;;19.90;99.90;;;;;;5027736;28;20922;-68
2023/10/13 13:13:49;;;;;;;11.03;6.33;;;20.00;99.90;;;;;;5032058;28;20409;-68
2023/10/13 13:16:23;;;;;;;7.97;4.80;;;20.10;99.90;;;;;;5031752;28;20464;-68
2023/10/13 13:18:50;;;;;;;5.93;4.33;;;20.10;99.90;;;;;;5031087;28;20588;-67
2023/10/13 13:21:25;;;;;;;4.80;4.23;;;20.20;99.90;;;;;;5028167;28;20436;-67
2023/10/13 13:23:54;;;;;;;10.83;4.77;;;20.30;99.90;;;;;;5020122;28;20418;-70
2023/10/13 13:26:20;;;;;;;8.17;5.00;;;20.40;99.90;;;;;;5023897;28;20427;-67
2023/10/13 13:28:50;;;;;;;7.17;5.40;;;20.50;99.90;;;;;;5031689;28;20755;-67
2023/10/13 13:31:16;;;;;;;10.00;5.07;;;20.50;99.90;;;;;;5031760;28;20402;-67
2023/10/13 13:33:44;;;;;;;6.77;5.40;;;20.60;99.90;;;;;;5031684;28;20408;-68
2023/10/13 13:36:13;;;;;;;13.60;5.50;;;20.70;99.90;;;;;;5031169;28;20467;-68
2023/10/13 13:38:40;;;;;;;7.07;6.47;;;20.70;99.90;;;;;;5023623;28;20501;-69
2023/10/13 13:41:17;;;;;;;8.53;4.50;;;20.70;99.90;;;;;;5031664;28;20421;-66
2023/10/13 13:46:24;;;;;;;6.47;4.60;;;20.90;99.90;;;;;;5031315;28;20435;-67
2023/10/13 13:48:51;;;;;;;7.97;4.60;;;21.00;99.90;;;;;;5031324;28;20473;-67
2023/10/13 13:51:26;;;;;;;5.93;4.67;;;20.90;99.90;;;;;;5024733;28;20423;-68
2023/10/13 13:53:52;;;;;;;7.27;4.40;;;20.90;99.90;;;;;;5017214;28;20418;-68
2023/10/13 13:56:19;;;;;;;7.07;4.90;;;20.90;99.90;;;;;;5029544;28;20912;-66
2023/10/13 13:58:45;;;;;;;7.77;6.97;;;21.00;99.90;;;;;;5031081;28;20410;-67
2023/10/13 14:01:21;;;;;;;6.93;4.60;;;21.00;99.90;;;;;;5016729;28;20430;-66
2023/10/13 14:03:50;;;;;;;8.53;4.90;;;21.10;99.90;;;;;;5017610;28;20927;-66
2023/10/13 14:06:23;;;;;;;10.20;5.20;;;21.10;99.90;;;;;;5029390;28;20435;-67
2023/10/13 14:08:51;;;;;;;8.30;5.57;;;21.10;99.90;;;;;;5023867;28;20768;-66
2023/10/13 14:14:04;;;;;;;10.30;5.23;;;21.30;99.90;;;;;;5020726;28;20450;-67
2023/10/13 14:16:33;;;;;;;9.97;4.93;;;21.40;99.90;;;;;;5031614;28;20470;-71
2023/10/13 14:19:01;;;;;;;8.03;4.50;;;21.40;99.90;;;;;;5029035;28;20413;-67
2023/10/13 14:21:27;;;;;;;12.03;5.70;;;21.40;99.90;;;;;;5032796;28;20561;-68
2023/10/13 14:23:53;;;;;;;7.10;4.83;;;21.40;99.90;;;;;;5033534;28;20455;-67
2023/10/13 14:26:30;;;;;;;5.70;5.20;;;21.40;99.90;;;;;;5034822;28;20454;-67
2023/10/13 14:29:05;;;;;;;7.70;5.20;;;21.40;99.90;;;;;;5033719;28;20784;-68
2023/10/13 14:31:31;;;;;;;13.53;5.23;;;21.50;99.90;;;;;;5034794;28;20778;-67
2023/10/13 14:33:57;;;;;;;8.10;5.30;;;21.60;99.90;;;;;;5034756;28;20436;-68
2023/10/13 14:36:28;;;;;;;7.17;5.17;;;21.50;99.90;;;;;;5034175;28;20463;-69
2023/10/13 14:38:54;;;;;;;6.40;5.13;;;21.60;99.90;;;;;;5034714;28;20419;-67
2023/10/13 14:41:20;;;;;;;7.83;4.63;;;21.50;99.90;;;;;;5034734;28;20847;-67
2023/10/13 14:43:48;;;;;;;9.93;4.90;;;21.60;99.90;;;;;;5034828;28;20446;-67
2023/10/13 14:46:18;;;;;;;8.47;5.70;;;21.50;99.90;;;;;;5033333;28;20189;-69
2023/10/13 14:48:44;;;;;;;8.93;5.70;;;21.50;99.90;;;;;;5034654;28;20877;-67
2023/10/13 14:51:12;;;;;;;10.00;5.83;;;21.40;99.90;;;;;;5034720;28;20415;-67
2023/10/13 14:53:44;;;;;;;9.30;5.40;;;21.40;99.90;;;;;;5034739;28;20439;-67
2023/10/13 14:56:11;;;;;;;6.00;4.57;;;21.40;99.90;;;;;;5025671;28;20934;-68
2023/10/13 14:58:42;;;;;;;8.07;5.20;;;21.40;99.90;;;;;;5034157;28;20453;-68
2023/10/13 15:01:17;;;;;;;10.30;5.47;;;21.40;99.90;;;;;;5034634;28;20425;-68
2023/10/13 15:03:44;;;;;;;8.97;5.37;;;21.30;99.90;;;;;;5033629;28;20507;-68
2023/10/13 15:06:20;;;;;;;8.40;4.90;;;21.30;99.90;;;;;;5032033;28;20443;-67
2023/10/13 15:08:49;;;;;;;8.53;5.23;;;21.20;99.90;;;;;;5016922;28;20902;-66
2023/10/13 15:11:15;;;;;;;8.00;5.00;;;21.20;99.90;;;;;;5024133;28;20420;-68
2023/10/13 15:13:44;;;;;;;16.43;5.37;;;21.20;99.90;;;;;;5033844;28;20820;-67
2023/10/13 15:16:21;;;;;;;6.70;5.50;;;21.20;99.90;;;;;;5033606;28;20213;-69
2023/10/13 15:18:51;;;;;;;8.37;5.20;;;21.20;99.90;;;;;;5032279;28;20401;-68
2023/10/13 15:21:21;;;;;;;9.03;6.27;;;21.20;99.90;;;;;;5033753;28;20414;-69
2023/10/13 15:23:47;;;;;;;11.40;5.63;;;21.20;99.90;;;;;;5017814;28;20526;-67
2023/10/13 15:26:14;;;;;;;10.27;6.90;;;21.20;99.90;;;;;;5033554;28;20439;-67
2023/10/13 15:28:49;;;;;;;5.77;5.27;;;21.10;99.90;;;;;;5033221;28;20499;-67
2023/10/13 15:31:37;;;;;;;9.50;4.93;;;21.10;99.90;;;;;;5034774;28;20528;-68
2023/10/13 15:34:06;;;;;;;6.50;5.47;;;21.10;99.90;;;;;;5021828;28;20400;-67
2023/10/13 15:36:33;;;;;;;9.50;5.90;;;21.10;99.90;;;;;;5032113;28;20468;-67
2023/10/13 15:39:00;;;;;;;12.70;5.27;;;21.00;99.90;;;;;;5033280;28;20755;-68
2023/10/13 15:41:27;;;;;;;7.63;5.00;;;21.00;99.90;;;;;;5033432;28;21343;-69
2023/10/13 15:43:54;;;;;;;11.97;6.57;;;21.00;99.90;;;;;;5033667;28;20411;-69
2023/10/13 15:46:21;;;;;;;9.73;5.00;;;21.00;99.90;;;;;;5033698;28;20438;-70
2023/10/13 15:48:53;;;;;;;7.67;5.57;;;20.90;99.90;;;;;;5033648;28;20409;-68
2023/10/13 15:51:19;;;;;;;11.93;5.20;;;20.90;99.90;;;;;;5033322;28;20505;-68
2023/10/13 15:53:48;;;;;;;9.30;4.90;;;20.90;99.90;;;;;;5026775;28;20865;-70
2023/10/13 15:56:17;;;;;;;7.77;5.93;;;20.90;99.90;;;;;;5025170;28;20931;-72
2023/10/13 15:58:45;;;;;;;9.63;5.00;;;20.90;99.90;;;;;;5033663;28;20424;-67
2023/10/13 16:01:13;;;;;;;16.80;5.90;;;20.80;99.90;;;;;;5033400;28;20892;-67
2023/10/13 16:03:43;;;;;;;10.40;6.03;;;20.80;99.90;;;;;;5033652;28;20403;-68
2023/10/13 16:06:10;;;;;;;13.90;5.53;;;20.80;99.90;;;;;;5031445;28;20459;-69
2023/10/13 16:08:43;;;;;;;8.60;5.17;;;20.80;99.90;;;;;;5031120;28;20414;-72
2023/10/13 16:11:14;;;;;;;8.93;5.50;;;20.70;99.90;;;;;;5029481;28;20437;-67
2023/10/13 16:13:40;;;;;;;8.80;6.10;;;20.70;99.90;;;;;;5032600;28;20760;-66
2023/10/13 16:16:14;;;;;;;13.60;6.60;;;20.60;99.90;;;;;;5032664;28;20457;-66
2023/10/13 16:18:39;;;;;;;9.33;5.70;;;20.60;99.90;;;;;;5032576;28;20419;-67
2023/10/13 16:21:05;;;;;;;9.67;5.40;;;20.60;99.90;;;;;;5032638;28;20421;-68
2023/10/13 16:23:31;;;;;;;12.67;6.30;;;20.60;99.90;;;;;;5032649;28;20218;-69
2023/10/13 16:26:01;;;;;;;9.70;6.60;;;20.60;99.90;;;;;;5032663;28;20203;-67
2023/10/13 16:28:27;;;;;;;14.70;5.90;;;20.40;99.90;;;;;;5030285;28;20416;-69
2023/10/13 16:30:55;;;;;;;8.70;5.73;;;20.50;99.90;;;;;;5032477;28;20417;-67
2023/10/13 16:33:21;;;;;;;10.10;6.00;;;20.40;99.90;;;;;;5023434;28;20188;-69
2023/10/13 16:35:48;;;;;;;10.43;5.60;;;20.40;99.90;;;;;;5032139;28;20479;-69